sensor_id;sensor_type;location;lat;lon;timestamp;pressure;altitude;pressure_sealevel;temperature;humidity
58070;BME280;43863;52.256;21.048;2022-10-29T00:00:32;100940.75;;;16.51;68.83
58070;BME280;43863;52.256;21.048;2022-10-29T00:03:00;100937.41;;;16.49;68.66
58070;BME280;43863;52.256;21.048;2022-10-29T00:05:28;100930.19;;;16.50;68.53
58070;BME280;43863;52.256;21.048;2022-10-29T00:07:56;100931.47;;;16.54;68.41
58070;BME280;43863;52.256;21.048;2022-10-29T00:10:42;100928.56;;;16.55;68.43
58070;BME280;43863;52.256;21.048;2022-10-29T00:13:10;100930.44;;;16.55;68.34
58070;BME280;43863;52.256;21.048;2022-10-29T00:15:41;100934.56;;;16.57;68.35
58070;BME280;43863;52.256;21.048;2022-10-29T00:18:08;100925.88;;;16.55;68.45
58070;BME280;43863;52.256;21.048;2022-10-29T00:21:06;100920.75;;;16.54;68.17
58070;BME280;43863;52.256;21.048;2022-10-29T00:23:34;100919.28;;;16.51;68.20
58070;BME280;43863;52.256;21.048;2022-10-29T00:26:02;100921.16;;;16.51;68.07
58070;BME280;43863;52.256;21.048;2022-10-29T00:28:31;100921.72;;;16.46;67.94
58070;BME280;43863;52.256;21.048;2022-10-29T00:31:13;100919.88;;;16.47;67.78
58070;BME280;43863;52.256;21.048;2022-10-29T00:33:42;100917.81;;;16.42;67.88
58070;BME280;43863;52.256;21.048;2022-10-29T00:36:12;100912.84;;;16.39;68.09
58070;BME280;43863;52.256;21.048;2022-10-29T00:38:57;100912.19;;;16.30;67.99
58070;BME280;43863;52.256;21.048;2022-10-29T00:41:27;100917.13;;;16.27;68.28
58070;BME280;43863;52.256;21.048;2022-10-29T00:46:44;100908.66;;;16.23;68.00
58070;BME280;43863;52.256;21.048;2022-10-29T00:49:15;100907.19;;;16.21;68.21
58070;BME280;43863;52.256;21.048;2022-10-29T00:51:44;100910.09;;;16.19;67.90
58070;BME280;43863;52.256;21.048;2022-10-29T00:54:14;100904.91;;;16.18;68.28
58070;BME280;43863;52.256;21.048;2022-10-29T00:56:51;100908.19;;;16.13;68.06
58070;BME280;43863;52.256;21.048;2022-10-29T00:59:20;100899.94;;;16.08;68.34
58070;BME280;43863;52.256;21.048;2022-10-29T01:01:48;100896.81;;;16.04;68.50
58070;BME280;43863;52.256;21.048;2022-10-29T01:04:17;100897.84;;;16.03;68.42
58070;BME280;43863;52.256;21.048;2022-10-29T01:06:45;100889.38;;;16.00;68.36
58070;BME280;43863;52.256;21.048;2022-10-29T01:09:14;100889.59;;;15.98;68.36
58070;BME280;43863;52.256;21.048;2022-10-29T01:26:34;100894.66;;;15.86;68.11
58070;BME280;43863;52.256;21.048;2022-10-29T01:35:03;100892.78;;;15.80;68.34
58070;BME280;43863;52.256;21.048;2022-10-29T01:43:54;100892.13;;;15.72;68.38
58070;BME280;43863;52.256;21.048;2022-10-29T01:46:35;100891.09;;;15.73;68.33
58070;BME280;43863;52.256;21.048;2022-10-29T01:49:17;100887.41;;;15.74;68.23
58070;BME280;43863;52.256;21.048;2022-10-29T01:51:47;100891.09;;;15.73;68.47
58070;BME280;43863;52.256;21.048;2022-10-29T01:54:18;100886.94;;;15.70;68.13
58070;BME280;43863;52.256;21.048;2022-10-29T01:56:54;100888.78;;;15.69;68.12
58070;BME280;43863;52.256;21.048;2022-10-29T01:59:39;100891.41;;;15.63;68.32
58070;BME280;43863;52.256;21.048;2022-10-29T02:05:56;100884.41;;;15.62;68.20
58070;BME280;43863;52.256;21.048;2022-10-29T02:08:35;100877.59;;;15.59;68.27
58070;BME280;43863;52.256;21.048;2022-10-29T02:13:40;100873.84;;;15.54;68.51
58070;BME280;43863;52.256;21.048;2022-10-29T02:16:11;100866.00;;;15.52;68.51
58070;BME280;43863;52.256;21.048;2022-10-29T02:18:56;100867.59;;;15.46;68.32
58070;BME280;43863;52.256;21.048;2022-10-29T02:21:25;100859.78;;;15.45;68.40
58070;BME280;43863;52.256;21.048;2022-10-29T02:23:53;100863.50;;;15.44;68.40
58070;BME280;43863;52.256;21.048;2022-10-29T02:26:21;100863.50;;;15.44;68.33
58070;BME280;43863;52.256;21.048;2022-10-29T02:28:49;100865.97;;;15.45;68.01
58070;BME280;43863;52.256;21.048;2022-10-29T02:31:16;100856.28;;;15.44;68.28
58070;BME280;43863;52.256;21.048;2022-10-29T02:34:02;100846.41;;;15.45;68.09
58070;BME280;43863;52.256;21.048;2022-10-29T02:36:47;100840.81;;;15.46;68.02
58070;BME280;43863;52.256;21.048;2022-10-29T02:39:32;100823.34;;;15.44;67.95
58070;BME280;43863;52.256;21.048;2022-10-29T02:42:00;100826.84;;;15.44;67.87
58070;BME280;43863;52.256;21.048;2022-10-29T02:44:28;100827.44;;;15.46;68.09
58070;BME280;43863;52.256;21.048;2022-10-29T02:46:56;100819.63;;;15.45;67.75
58070;BME280;43863;52.256;21.048;2022-10-29T02:49:24;100829.31;;;15.46;67.69
58070;BME280;43863;52.256;21.048;2022-10-29T02:51:51;100822.09;;;15.46;67.57
58070;BME280;43863;52.256;21.048;2022-10-29T02:54:19;100818.81;;;15.44;67.37
58070;BME280;43863;52.256;21.048;2022-10-29T02:56:47;100818.81;;;15.44;67.58
58070;BME280;43863;52.256;21.048;2022-10-29T02:59:15;100822.72;;;15.48;67.18
58070;BME280;43863;52.256;21.048;2022-10-29T03:02:00;100818.41;;;15.47;67.26
58070;BME280;43863;52.256;21.048;2022-10-29T03:04:28;100815.50;;;15.49;67.10
58070;BME280;43863;52.256;21.048;2022-10-29T03:06:56;100817.38;;;15.48;66.98
58070;BME280;43863;52.256;21.048;2022-10-29T03:09:24;100820.06;;;15.55;66.77
58070;BME280;43863;52.256;21.048;2022-10-29T03:12:09;100817.41;;;15.55;66.80
58070;BME280;43863;52.256;21.048;2022-10-29T03:14:37;100808.38;;;15.63;66.49
58070;BME280;43863;52.256;21.048;2022-10-29T03:17:05;100811.34;;;15.68;66.45
58070;BME280;43863;52.256;21.048;2022-10-29T03:19:32;100807.22;;;15.72;66.47
58070;BME280;43863;52.256;21.048;2022-10-29T03:22:00;100802.28;;;15.76;66.12
58070;BME280;43863;52.256;21.048;2022-10-29T03:24:28;100802.50;;;15.74;66.21
58070;BME280;43863;52.256;21.048;2022-10-29T03:26:55;100791.38;;;15.71;65.93
58070;BME280;43863;52.256;21.048;2022-10-29T03:29:40;100796.94;;;15.76;65.83
58070;BME280;43863;52.256;21.048;2022-10-29T03:32:08;100787.09;;;15.83;65.32
58070;BME280;43863;52.256;21.048;2022-10-29T03:34:36;100790.38;;;15.85;65.40
58070;BME280;43863;52.256;21.048;2022-10-29T03:37:04;100784.00;;;15.86;65.27
58070;BME280;43863;52.256;21.048;2022-10-29T03:39:32;100780.09;;;15.88;65.23
58070;BME280;43863;52.256;21.048;2022-10-29T03:41:59;100779.91;;;15.90;65.28
58070;BME280;43863;52.256;21.048;2022-10-29T03:44:30;100788.34;;;15.93;64.95
58070;BME280;43863;52.256;21.048;2022-10-29T03:46:58;100780.72;;;15.97;65.22
58070;BME280;43863;52.256;21.048;2022-10-29T03:49:29;100779.09;;;15.96;64.97
58070;BME280;43863;52.256;21.048;2022-10-29T03:51:57;100784.66;;;15.95;65.05
58070;BME280;43863;52.256;21.048;2022-10-29T03:54:25;100784.84;;;15.93;65.00
58070;BME280;43863;52.256;21.048;2022-10-29T03:56:52;100791.84;;;15.94;65.00
58070;BME280;43863;52.256;21.048;2022-10-29T03:59:38;100791.66;;;15.96;65.08
58070;BME280;43863;52.256;21.048;2022-10-29T04:02:08;100798.88;;;15.95;64.96
58070;BME280;43863;52.256;21.048;2022-10-29T04:04:36;100805.88;;;15.96;64.81
58070;BME280;43863;52.256;21.048;2022-10-29T04:07:04;100810.00;;;15.99;64.91
58070;BME280;43863;52.256;21.048;2022-10-29T04:09:32;100808.97;;;16.00;64.92
58070;BME280;43863;52.256;21.048;2022-10-29T04:11:59;100811.88;;;15.98;64.65
58070;BME280;43863;52.256;21.048;2022-10-29T04:14:27;100802.81;;;15.99;64.71
58070;BME280;43863;52.256;21.048;2022-10-29T04:17:13;100797.44;;;15.99;64.24
58070;BME280;43863;52.256;21.048;2022-10-29T04:19:58;100797.84;;;16.03;64.24
58070;BME280;43863;52.256;21.048;2022-10-29T04:22:25;100797.06;;;16.09;63.80
58070;BME280;43863;52.256;21.048;2022-10-29T04:25:13;100788.81;;;16.10;63.84
58070;BME280;43863;52.256;21.048;2022-10-29T04:28:01;100786.97;;;16.18;63.63
58070;BME280;43863;52.256;21.048;2022-10-29T04:30:49;100777.31;;;16.23;63.44
58070;BME280;43863;52.256;21.048;2022-10-29T04:33:17;100778.34;;;16.29;63.39
58070;BME280;43863;52.256;21.048;2022-10-29T04:35:53;100772.38;;;16.33;63.05
58070;BME280;43863;52.256;21.048;2022-10-29T04:38:23;100773.84;;;16.36;63.16
58070;BME280;43863;52.256;21.048;2022-10-29T04:40:51;100772.78;;;16.37;62.79
58070;BME280;43863;52.256;21.048;2022-10-29T04:43:22;100778.56;;;16.47;62.48
58070;BME280;43863;52.256;21.048;2022-10-29T04:46:09;100776.75;;;16.48;62.64
58070;BME280;43863;52.256;21.048;2022-10-29T04:48:37;100775.69;;;16.49;62.55
58070;BME280;43863;52.256;21.048;2022-10-29T04:51:05;100783.34;;;16.52;62.26
58070;BME280;43863;52.256;21.048;2022-10-29T04:53:33;100787.88;;;16.58;62.26
58070;BME280;43863;52.256;21.048;2022-10-29T04:56:01;100783.13;;;16.60;61.93
58070;BME280;43863;52.256;21.048;2022-10-29T04:58:32;100776.31;;;16.64;61.74
58070;BME280;43863;52.256;21.048;2022-10-29T05:01:01;100772.81;;;16.64;61.82
58070;BME280;43863;52.256;21.048;2022-10-29T05:03:30;100777.78;;;16.67;62.05
58070;BME280;43863;52.256;21.048;2022-10-29T05:06:03;100775.72;;;16.69;61.92
58070;BME280;43863;52.256;21.048;2022-10-29T05:08:32;100773.03;;;16.69;61.56
58070;BME280;43863;52.256;21.048;2022-10-29T05:11:04;100791.81;;;16.69;61.75
58070;BME280;43863;52.256;21.048;2022-10-29T05:13:32;100777.78;;;16.67;61.79
58070;BME280;43863;52.256;21.048;2022-10-29T05:16:01;100792.00;;;16.67;61.39
58070;BME280;43863;52.256;21.048;2022-10-29T05:18:28;100797.19;;;16.69;61.24
58070;BME280;43863;52.256;21.048;2022-10-29T05:20:56;100794.09;;;16.72;61.40
58070;BME280;43863;52.256;21.048;2022-10-29T05:23:42;100807.91;;;16.69;61.28
58070;BME280;43863;52.256;21.048;2022-10-29T05:26:10;100807.47;;;16.65;61.50
58070;BME280;43863;52.256;21.048;2022-10-29T05:28:38;100805.63;;;16.66;61.43
58070;BME280;43863;52.256;21.048;2022-10-29T05:31:22;100813.69;;;16.72;61.44
58070;BME280;43863;52.256;21.048;2022-10-29T05:33:50;100821.13;;;16.77;61.30
58070;BME280;43863;52.256;21.048;2022-10-29T05:36:22;100826.31;;;16.78;61.20
58070;BME280;43863;52.256;21.048;2022-10-29T05:39:07;100814.53;;;16.79;61.33
58070;BME280;43863;52.256;21.048;2022-10-29T05:41:35;100815.16;;;16.81;61.29
58070;BME280;43863;52.256;21.048;2022-10-29T05:44:06;100806.91;;;16.90;60.84
58070;BME280;43863;52.256;21.048;2022-10-29T05:46:33;100813.72;;;16.92;60.88
58070;BME280;43863;52.256;21.048;2022-10-29T05:49:01;100813.91;;;16.91;61.06
58070;BME280;43863;52.256;21.048;2022-10-29T05:51:29;100815.19;;;16.95;60.87
58070;BME280;43863;52.256;21.048;2022-10-29T05:53:57;100813.72;;;16.92;61.09
58070;BME280;43863;52.256;21.048;2022-10-29T05:56:25;100808.13;;;16.94;60.74
58070;BME280;43863;52.256;21.048;2022-10-29T05:59:10;100807.53;;;16.98;60.72
58070;BME280;43863;52.256;21.048;2022-10-29T06:01:38;100802.97;;;16.99;60.79
58070;BME280;43863;52.256;21.048;2022-10-29T06:04:06;100802.56;;;16.95;60.72
58070;BME280;43863;52.256;21.048;2022-10-29T06:06:51;100792.25;;;16.86;60.81
58070;BME280;43863;52.256;21.048;2022-10-29T06:09:19;100800.91;;;16.88;61.15
58070;BME280;43863;52.256;21.048;2022-10-29T06:12:05;100792.03;;;16.87;61.01
58070;BME280;43863;52.256;21.048;2022-10-29T06:14:33;100793.91;;;16.93;60.81
58070;BME280;43863;52.256;21.048;2022-10-29T06:17:18;100804.81;;;16.92;61.21
58070;BME280;43863;52.256;21.048;2022-10-29T06:19:46;100800.50;;;16.91;60.93
58070;BME280;43863;52.256;21.048;2022-10-29T06:22:14;100793.06;;;16.93;61.17
58070;BME280;43863;52.256;21.048;2022-10-29T06:24:41;100790.59;;;16.98;60.99
58070;BME280;43863;52.256;21.048;2022-10-29T06:27:09;100787.50;;;17.01;61.13
58070;BME280;43863;52.256;21.048;2022-10-29T06:29:37;100797.81;;;17.04;60.89
58070;BME280;43863;52.256;21.048;2022-10-29T06:32:05;100791.00;;;17.08;60.78
58070;BME280;43863;52.256;21.048;2022-10-29T06:34:33;100807.50;;;17.12;60.83
58070;BME280;43863;52.256;21.048;2022-10-29T06:37:01;100805.63;;;17.12;60.64
58070;BME280;43863;52.256;21.048;2022-10-29T06:39:28;100810.59;;;17.15;60.82
58070;BME280;43863;52.256;21.048;2022-10-29T06:41:57;100815.31;;;17.26;60.51
58070;BME280;43863;52.256;21.048;2022-10-29T06:44:42;100812.22;;;17.36;60.43
58070;BME280;43863;52.256;21.048;2022-10-29T06:47:30;100809.31;;;17.44;60.22
58070;BME280;43863;52.256;21.048;2022-10-29T06:49:58;100810.13;;;17.51;60.16
58070;BME280;43863;52.256;21.048;2022-10-29T06:52:59;100829.75;;;17.52;59.97
58070;BME280;43863;52.256;21.048;2022-10-29T06:55:27;100834.09;;;17.46;60.24
58070;BME280;43863;52.256;21.048;2022-10-29T06:58:17;100835.91;;;17.59;59.97
58070;BME280;43863;52.256;21.048;2022-10-29T07:00:52;100832.63;;;17.64;59.70
58070;BME280;43863;52.256;21.048;2022-10-29T07:03:21;100841.06;;;17.67;59.76
58070;BME280;43863;52.256;21.048;2022-10-29T07:05:57;100830.72;;;17.84;59.50
58070;BME280;43863;52.256;21.048;2022-10-29T07:08:25;100830.25;;;17.94;59.03
58070;BME280;43863;52.256;21.048;2022-10-29T07:10:53;100839.09;;;18.01;59.30
58070;BME280;43863;52.256;21.048;2022-10-29T07:13:21;100831.88;;;18.02;59.08
58070;BME280;43863;52.256;21.048;2022-10-29T07:16:07;100831.47;;;18.05;58.81
58070;BME280;43863;52.256;21.048;2022-10-29T07:18:35;100822.53;;;18.11;58.90
58070;BME280;43863;52.256;21.048;2022-10-29T07:21:20;100813.19;;;18.20;58.80
58070;BME280;43863;52.256;21.048;2022-10-29T07:23:48;100814.38;;;18.24;58.65
58070;BME280;43863;52.256;21.048;2022-10-29T07:26:16;100813.38;;;18.25;58.52
58070;BME280;43863;52.256;21.048;2022-10-29T07:28:44;100814.34;;;18.31;58.35
58070;BME280;43863;52.256;21.048;2022-10-29T07:31:29;100815.78;;;18.33;57.92
58070;BME280;43863;52.256;21.048;2022-10-29T07:33:57;100814.97;;;18.33;58.29
58070;BME280;43863;52.256;21.048;2022-10-29T07:36:26;100812.84;;;18.41;58.11
58070;BME280;43863;52.256;21.048;2022-10-29T07:39:02;100815.03;;;18.58;58.02
58070;BME280;43863;52.256;21.048;2022-10-29T07:41:34;100807.53;;;18.60;57.59
58070;BME280;43863;52.256;21.048;2022-10-29T07:44:02;100814.72;;;18.66;57.49
58070;BME280;43863;52.256;21.048;2022-10-29T07:46:50;100822.78;;;18.73;57.56
58070;BME280;43863;52.256;21.048;2022-10-29T07:49:18;100824.94;;;18.89;57.36
58070;BME280;43863;52.256;21.048;2022-10-29T07:51:49;100819.66;;;19.01;57.15
58070;BME280;43863;52.256;21.048;2022-10-29T07:54:17;100809.94;;;19.00;56.88
58070;BME280;43863;52.256;21.048;2022-10-29T07:56:45;100815.53;;;18.98;57.08
58070;BME280;43863;52.256;21.048;2022-10-29T07:59:30;100812.47;;;18.95;57.21
58070;BME280;43863;52.256;21.048;2022-10-29T08:02:22;100815.72;;;19.03;57.11
58070;BME280;43863;52.256;21.048;2022-10-29T08:04:56;100807.69;;;18.97;56.97
58070;BME280;43863;52.256;21.048;2022-10-29T08:07:24;100811.16;;;19.04;57.02
58070;BME280;43863;52.256;21.048;2022-10-29T08:09:55;100810.44;;;19.15;56.84
58070;BME280;43863;52.256;21.048;2022-10-29T08:12:23;100810.88;;;19.30;56.97
58070;BME280;43863;52.256;21.048;2022-10-29T08:14:52;100814.94;;;19.40;56.72
58070;BME280;43863;52.256;21.048;2022-10-29T08:17:37;100801.34;;;19.53;56.69
58070;BME280;43863;52.256;21.048;2022-10-29T08:20:06;100799.00;;;19.57;56.35
58070;BME280;43863;52.256;21.048;2022-10-29T08:22:54;100786.50;;;19.62;56.24
58070;BME280;43863;52.256;21.048;2022-10-29T08:25:39;100805.94;;;19.71;56.25
58070;BME280;43863;52.256;21.048;2022-10-29T08:28:10;100807.41;;;19.67;56.17
58070;BME280;43863;52.256;21.048;2022-10-29T08:30:40;100818.59;;;19.70;56.32
58070;BME280;43863;52.256;21.048;2022-10-29T08:33:08;100825.88;;;19.63;56.59
58070;BME280;43863;52.256;21.048;2022-10-29T08:35:37;100827.59;;;19.58;56.66
58070;BME280;43863;52.256;21.048;2022-10-29T08:38:05;100823.91;;;19.52;56.81
58070;BME280;43863;52.256;21.048;2022-10-29T08:46:47;100821.53;;;19.62;56.89
58070;BME280;43863;52.256;21.048;2022-10-29T08:52:43;100819.56;;;19.76;57.01
58070;BME280;43863;52.256;21.048;2022-10-29T08:55:33;100817.81;;;19.82;57.31
58070;BME280;43863;52.256;21.048;2022-10-29T08:58:34;100806.78;;;20.02;57.11
58070;BME280;43863;52.256;21.048;2022-10-29T09:01:08;100808.00;;;20.06;56.98
58070;BME280;43863;52.256;21.048;2022-10-29T09:03:37;100817.34;;;20.03;56.63
58070;BME280;43863;52.256;21.048;2022-10-29T09:09:33;100833.09;;;20.06;56.92
58070;BME280;43863;52.256;21.048;2022-10-29T09:24:03;100829.88;;;19.97;57.73
58070;BME280;43863;52.256;21.048;2022-10-29T09:27:02;100835.63;;;20.01;57.87
58070;BME280;43863;52.256;21.048;2022-10-29T09:29:57;100820.25;;;20.02;58.18
58070;BME280;43863;52.256;21.048;2022-10-29T09:33:02;100820.72;;;19.98;58.07
58070;BME280;43863;52.256;21.048;2022-10-29T09:35:39;100821.19;;;19.95;58.48
58070;BME280;43863;52.256;21.048;2022-10-29T09:38:18;100821.53;;;19.99;58.40
58070;BME280;43863;52.256;21.048;2022-10-29T09:41:14;100829.41;;;20.00;58.32
58070;BME280;43863;52.256;21.048;2022-10-29T09:43:57;100818.53;;;20.07;58.58
58070;BME280;43863;52.256;21.048;2022-10-29T09:47:02;100819.28;;;20.14;58.37
58070;BME280;43863;52.256;21.048;2022-10-29T09:49:48;100823.47;;;20.10;58.82
58070;BME280;43863;52.256;21.048;2022-10-29T09:52:41;100827.38;;;20.14;58.88
58070;BME280;43863;52.256;21.048;2022-10-29T09:57:46;100851.56;;;20.21;58.82
58070;BME280;43863;52.256;21.048;2022-10-29T10:00:19;100853.44;;;20.20;58.85
58070;BME280;43863;52.256;21.048;2022-10-29T10:03:33;100862.09;;;20.22;58.75
58070;BME280;43863;52.256;21.048;2022-10-29T10:06:15;100865.00;;;20.09;58.86
58070;BME280;43863;52.256;21.048;2022-10-29T10:09:04;100852.72;;;19.95;59.37
58070;BME280;43863;52.256;21.048;2022-10-29T10:11:39;100867.00;;;19.95;59.50
58070;BME280;43863;52.256;21.048;2022-10-29T10:14:16;100864.94;;;19.97;59.60
58070;BME280;43863;52.256;21.048;2022-10-29T10:17:02;100859.63;;;19.91;59.90
58070;BME280;43863;52.256;21.048;2022-10-29T10:19:31;100847.53;;;19.93;59.90
58070;BME280;43863;52.256;21.048;2022-10-29T10:22:04;100835.94;;;19.93;60.11
58070;BME280;43863;52.256;21.048;2022-10-29T10:24:49;100825.03;;;19.88;60.10
58070;BME280;43863;52.256;21.048;2022-10-29T10:27:35;100839.84;;;19.97;60.45
58070;BME280;43863;52.256;21.048;2022-10-29T10:32:48;100852.41;;;20.03;60.24
58070;BME280;43863;52.256;21.048;2022-10-29T10:35:29;100843.56;;;19.96;60.38
58070;BME280;43863;52.256;21.048;2022-10-29T10:38:06;100842.97;;;19.75;60.93
58070;BME280;43863;52.256;21.048;2022-10-29T10:40:34;100854.59;;;19.76;61.06
58070;BME280;43863;52.256;21.048;2022-10-29T10:43:21;100879.53;;;19.71;61.32
58070;BME280;43863;52.256;21.048;2022-10-29T10:45:58;100867.19;;;19.57;61.67
58070;BME280;43863;52.256;21.048;2022-10-29T10:49:03;100884.19;;;19.58;61.81
58070;BME280;43863;52.256;21.048;2022-10-29T10:51:53;100880.59;;;19.64;62.13
58070;BME280;43863;52.256;21.048;2022-10-29T10:54:33;100876.00;;;19.71;61.93
58070;BME280;43863;52.256;21.048;2022-10-29T10:57:18;100862.53;;;19.71;62.09
58070;BME280;43863;52.256;21.048;2022-10-29T11:05:28;100861.84;;;20.12;61.18
58070;BME280;43863;52.256;21.048;2022-10-29T11:08:18;100849.44;;;20.23;61.04
58070;BME280;43863;52.256;21.048;2022-10-29T11:10:51;100852.38;;;20.21;61.21
58070;BME280;43863;52.256;21.048;2022-10-29T11:13:39;100856.59;;;20.17;61.10
58070;BME280;43863;52.256;21.048;2022-10-29T11:16:15;100855.53;;;20.18;61.34
58070;BME280;43863;52.256;21.048;2022-10-29T11:19:06;100854.63;;;20.25;60.90
58070;BME280;43863;52.256;21.048;2022-10-29T11:21:45;100853.59;;;20.37;60.79
58070;BME280;43863;52.256;21.048;2022-10-29T11:24:19;100845.78;;;20.48;60.78
58070;BME280;43863;52.256;21.048;2022-10-29T11:27:01;100849.72;;;20.63;59.96
58070;BME280;43863;52.256;21.048;2022-10-29T11:29:53;100863.56;;;20.55;60.23
58070;BME280;43863;52.256;21.048;2022-10-29T11:35:44;100858.59;;;20.22;60.66
58070;BME280;43863;52.256;21.048;2022-10-29T11:38:23;100858.94;;;20.26;60.53
58070;BME280;43863;52.256;21.048;2022-10-29T11:43:21;100874.16;;;20.20;60.94
58070;BME280;43863;52.256;21.048;2022-10-29T11:54:40;100887.72;;;20.32;60.87
58070;BME280;43863;52.256;21.048;2022-10-29T11:57:23;100879.88;;;20.30;60.96
58070;BME280;43863;52.256;21.048;2022-10-29T12:00:14;100867.75;;;20.21;61.15
58070;BME280;43863;52.256;21.048;2022-10-29T12:05:52;100859.69;;;20.33;60.86
58070;BME280;43863;52.256;21.048;2022-10-29T12:08:51;100864.22;;;20.51;60.71
58070;BME280;43863;52.256;21.048;2022-10-29T12:11:47;100857.88;;;20.45;60.49
58070;BME280;43863;52.256;21.048;2022-10-29T12:14:37;100847.84;;;20.34;60.88
58070;BME280;43863;52.256;21.048;2022-10-29T12:17:13;100850.34;;;20.35;60.77
58070;BME280;43863;52.256;21.048;2022-10-29T12:20:23;100862.66;;;20.43;60.70
58070;BME280;43863;52.256;21.048;2022-10-29T12:23:02;100845.66;;;20.42;60.37
58070;BME280;43863;52.256;21.048;2022-10-29T12:31:34;100848.59;;;20.41;60.18
58070;BME280;43863;52.256;21.048;2022-10-29T12:37:32;100856.50;;;20.24;59.89
58070;BME280;43863;52.256;21.048;2022-10-29T12:40:25;100850.66;;;20.27;59.98
58070;BME280;43863;52.256;21.048;2022-10-29T12:43:01;100863.31;;;20.27;59.70
58070;BME280;43863;52.256;21.048;2022-10-29T12:46:08;100862.72;;;20.25;59.92
58070;BME280;43863;52.256;21.048;2022-10-29T12:51:48;100862.97;;;20.05;60.16
58070;BME280;43863;52.256;21.048;2022-10-29T12:54:42;100864.63;;;20.06;60.27
58070;BME280;43863;52.256;21.048;2022-10-29T12:59:43;100863.31;;;20.08;60.11
58070;BME280;43863;52.256;21.048;2022-10-29T13:07:33;100859.28;;;19.99;60.34
58070;BME280;43863;52.256;21.048;2022-10-29T13:15:44;100853.78;;;19.94;59.49
58070;BME280;43863;52.256;21.048;2022-10-29T13:18:30;100859.66;;;19.84;59.26
58070;BME280;43863;52.256;21.048;2022-10-29T13:21:08;100865.88;;;19.66;59.51
58070;BME280;43863;52.256;21.048;2022-10-29T13:23:36;100857.03;;;19.59;59.54
58070;BME280;43863;52.256;21.048;2022-10-29T13:26:05;100860.63;;;19.53;59.52
58070;BME280;43863;52.256;21.048;2022-10-29T13:28:54;100856.66;;;19.55;59.25
58070;BME280;43863;52.256;21.048;2022-10-29T13:31:48;100863.84;;;19.62;59.24
58070;BME280;43863;52.256;21.048;2022-10-29T13:34:48;100871.50;;;19.65;58.02
58070;BME280;43863;52.256;21.048;2022-10-29T13:37:52;100861.88;;;19.50;58.50
58070;BME280;43863;52.256;21.048;2022-10-29T13:41:00;100851.31;;;19.49;58.18
58070;BME280;43863;52.256;21.048;2022-10-29T13:43:32;100868.81;;;19.40;58.34
58070;BME280;43863;52.256;21.048;2022-10-29T13:48:38;100854.97;;;19.36;58.29
58070;BME280;43863;52.256;21.048;2022-10-29T13:51:10;100860.94;;;19.20;58.20
58070;BME280;43863;52.256;21.048;2022-10-29T13:53:54;100866.78;;;19.17;58.70
58070;BME280;43863;52.256;21.048;2022-10-29T14:00:07;100860.88;;;19.01;59.07
58070;BME280;43863;52.256;21.048;2022-10-29T14:07:57;100866.38;;;18.88;59.13
58070;BME280;43863;52.256;21.048;2022-10-29T14:10:34;100873.84;;;18.86;59.28
58070;BME280;43863;52.256;21.048;2022-10-29T14:18:47;100870.66;;;18.96;59.32
58070;BME280;43863;52.256;21.048;2022-10-29T14:21:24;100865.31;;;18.89;59.34
58070;BME280;43863;52.256;21.048;2022-10-29T14:27:10;100861.59;;;18.90;59.16
58070;BME280;43863;52.256;21.048;2022-10-29T14:29:39;100874.28;;;18.83;59.36
58070;BME280;43863;52.256;21.048;2022-10-29T14:32:19;100874.88;;;18.85;59.55
58070;BME280;43863;52.256;21.048;2022-10-29T14:34:50;100862.94;;;18.74;59.56
58070;BME280;43863;52.256;21.048;2022-10-29T14:37:27;100875.81;;;18.65;59.78
58070;BME280;43863;52.256;21.048;2022-10-29T14:40:02;100866.16;;;18.51;60.13
58070;BME280;43863;52.256;21.048;2022-10-29T14:42:36;100867.44;;;18.49;60.25
58070;BME280;43863;52.256;21.048;2022-10-29T14:45:14;100861.50;;;18.40;60.42
58070;BME280;43863;52.256;21.048;2022-10-29T14:47:47;100862.94;;;18.36;60.79
58070;BME280;43863;52.256;21.048;2022-10-29T14:50:22;100866.00;;;18.39;60.63
58070;BME280;43863;52.256;21.048;2022-10-29T14:52:57;100876.16;;;18.44;60.95
58070;BME280;43863;52.256;21.048;2022-10-29T14:55:32;100891.47;;;18.44;61.10
58070;BME280;43863;52.256;21.048;2022-10-29T14:58:12;100881.97;;;18.41;61.36
58070;BME280;43863;52.256;21.048;2022-10-29T15:01:05;100878.88;;;18.37;61.32
58070;BME280;43863;52.256;21.048;2022-10-29T15:03:36;100882.66;;;18.23;62.04
58070;BME280;43863;52.256;21.048;2022-10-29T15:06:37;100883.72;;;18.22;61.71
58070;BME280;43863;52.256;21.048;2022-10-29T15:09:11;100876.66;;;18.21;62.08
58070;BME280;43863;52.256;21.048;2022-10-29T15:12:00;100876.06;;;18.19;62.05
58070;BME280;43863;52.256;21.048;2022-10-29T15:14:50;100876.69;;;18.14;62.22
58070;BME280;43863;52.256;21.048;2022-10-29T15:17:21;100873.38;;;18.12;62.41
58070;BME280;43863;52.256;21.048;2022-10-29T15:19:55;100882.69;;;18.10;62.63
58070;BME280;43863;52.256;21.048;2022-10-29T15:22:41;100889.13;;;18.09;62.66
58070;BME280;43863;52.256;21.048;2022-10-29T15:25:19;100894.75;;;18.07;62.73
58070;BME280;43863;52.256;21.048;2022-10-29T15:27:50;100893.06;;;18.06;62.71
58070;BME280;43863;52.256;21.048;2022-10-29T15:30:20;100908.19;;;17.94;63.47
58070;BME280;43863;52.256;21.048;2022-10-29T15:32:50;100901.19;;;17.86;63.46
58070;BME280;43863;52.256;21.048;2022-10-29T15:35:20;100904.09;;;17.85;63.83
58070;BME280;43863;52.256;21.048;2022-10-29T15:37:50;100901.59;;;17.83;63.95
58070;BME280;43863;52.256;21.048;2022-10-29T15:40:21;100910.28;;;17.85;64.07